createdAt,value
2023-08-17T00:02:51.371Z,14.96
2023-08-17T00:05:56.016Z,14.98
2023-08-17T00:09:00.491Z,14.95
2023-08-17T00:12:05.534Z,15.00
2023-08-17T00:15:11.587Z,15.03
2023-08-17T00:18:15.804Z,15.07
2023-08-17T00:21:20.747Z,15.06
2023-08-17T00:24:25.239Z,15.10
2023-08-17T00:27:29.916Z,15.08
2023-08-17T00:30:37.176Z,15.06
2023-08-17T00:33:41.652Z,14.97
2023-08-17T00:36:46.314Z,14.92
2023-08-17T00:39:50.730Z,14.87
2023-08-17T00:42:55.155Z,14.90
2023-08-17T00:46:00.604Z,14.92
2023-08-17T00:49:05.795Z,14.88
2023-08-17T00:52:11.230Z,14.85
2023-08-17T00:55:16.012Z,14.87
2023-08-17T00:58:22.530Z,14.87
2023-08-17T01:01:26.943Z,14.86
2023-08-17T01:04:33.131Z,14.90
2023-08-17T01:07:38.419Z,14.93
2023-08-17T01:11:03.461Z,14.96
2023-08-17T01:14:22.118Z,14.98
2023-08-17T01:17:35.021Z,14.95
2023-08-17T01:20:40.302Z,15.01
2023-08-17T01:23:50.617Z,14.99
2023-08-17T01:26:55.151Z,15.08
2023-08-17T01:30:00.250Z,15.11
2023-08-17T01:33:14.942Z,15.16
2023-08-17T01:36:26.670Z,15.13
2023-08-17T01:39:41.194Z,15.18
2023-08-17T01:42:45.585Z,15.15
2023-08-17T01:45:50.172Z,15.20
2023-08-17T01:48:56.469Z,15.20
2023-08-17T01:52:01.993Z,15.24
2023-08-17T01:55:06.498Z,15.25
2023-08-17T01:58:11.093Z,15.27
2023-08-17T02:01:15.315Z,15.23
2023-08-17T02:04:19.946Z,15.22
2023-08-17T02:07:24.772Z,15.14
2023-08-17T02:10:29.526Z,15.16
2023-08-17T02:13:33.594Z,15.14
2023-08-17T02:16:38.247Z,15.18
2023-08-17T02:19:45.041Z,15.13
2023-08-17T02:22:49.320Z,15.12
2023-08-17T02:25:54.078Z,15.19
2023-08-17T02:28:58.008Z,15.12
2023-08-17T02:32:02.356Z,15.17
2023-08-17T02:35:07.702Z,15.18
2023-08-17T02:38:12.310Z,15.15
2023-08-17T02:41:16.777Z,15.18
2023-08-17T02:44:22.180Z,15.19
2023-08-17T02:47:26.945Z,15.21
2023-08-17T02:50:31.656Z,15.21
2023-08-17T02:53:35.892Z,15.16
2023-08-17T02:56:40.240Z,15.15
2023-08-17T02:59:44.982Z,15.18
2023-08-17T03:02:49.697Z,15.19
2023-08-17T03:05:54.059Z,15.19
2023-08-17T03:08:58.389Z,15.23
2023-08-17T03:12:02.596Z,15.21
2023-08-17T03:15:07.900Z,15.18
2023-08-17T03:18:11.939Z,15.17
2023-08-17T03:21:16.376Z,15.15
2023-08-17T03:24:20.398Z,15.07
2023-08-17T03:27:26.254Z,15.07
2023-08-17T03:30:31.416Z,15.03
2023-08-17T03:33:36.885Z,15.07
2023-08-17T03:36:41.302Z,15.04
2023-08-17T03:39:45.431Z,15.07
2023-08-17T03:42:49.682Z,15.06
2023-08-17T03:45:54.887Z,15.02
2023-08-17T03:48:59.545Z,15.05
2023-08-17T03:52:03.828Z,15.05
2023-08-17T03:55:08.606Z,15.08
2023-08-17T03:58:13.105Z,15.07
2023-08-17T04:01:18.375Z,15.09
2023-08-17T04:04:23.213Z,15.12
2023-08-17T04:07:27.366Z,15.10
2023-08-17T04:10:31.869Z,15.09
2023-08-17T04:13:36.024Z,15.07
2023-08-17T04:16:40.338Z,15.10
2023-08-17T04:19:45.045Z,15.03
2023-08-17T04:22:49.543Z,15.01
2023-08-17T04:25:56.371Z,15.00
2023-08-17T04:29:00.754Z,15.01
2023-08-17T04:32:05.906Z,15.02
2023-08-17T04:35:12.282Z,15.06
2023-08-17T04:38:16.880Z,15.08
2023-08-17T04:41:21.271Z,15.08
2023-08-17T04:44:25.562Z,15.12
2023-08-17T04:47:29.755Z,15.18
2023-08-17T04:50:33.940Z,15.19
2023-08-17T04:53:38.641Z,15.20
2023-08-17T04:56:44.706Z,15.25
2023-08-17T04:59:49.418Z,15.30
2023-08-17T05:02:53.671Z,15.29
2023-08-17T05:05:57.994Z,15.27
2023-08-17T05:09:02.964Z,15.32
2023-08-17T05:12:09.024Z,15.37
2023-08-17T05:15:13.547Z,15.41
2023-08-17T05:18:17.753Z,15.47
2023-08-17T05:21:22.033Z,15.48
2023-08-17T05:24:26.512Z,15.46
2023-08-17T05:27:31.733Z,15.47
2023-08-17T05:30:35.960Z,15.50
2023-08-17T05:33:42.144Z,15.46
2023-08-17T05:36:46.456Z,15.44
2023-08-17T05:39:51.237Z,15.48
2023-08-17T05:42:55.500Z,15.45
2023-08-17T05:46:00.568Z,15.40
2023-08-17T05:49:05.538Z,15.40
2023-08-17T05:52:10.468Z,15.45
2023-08-17T05:55:15.045Z,15.52
2023-08-17T05:58:19.222Z,15.53
2023-08-17T06:01:23.358Z,15.49
2023-08-17T06:04:28.296Z,15.48
2023-08-17T06:07:32.940Z,15.50
2023-08-17T06:10:37.188Z,15.52
2023-08-17T06:13:41.294Z,15.53
2023-08-17T06:16:45.652Z,15.54
2023-08-17T06:19:49.962Z,15.55
2023-08-17T06:22:54.616Z,15.54
2023-08-17T06:25:59.880Z,15.55
2023-08-17T06:29:04.979Z,15.59
2023-08-17T06:32:09.451Z,15.68
2023-08-17T06:35:13.997Z,15.67
2023-08-17T06:38:18.325Z,15.69
2023-08-17T06:41:22.882Z,15.64
2023-08-17T06:44:27.425Z,15.64
2023-08-17T06:47:31.499Z,15.66
2023-08-17T06:50:36.004Z,15.64
2023-08-17T06:53:40.783Z,15.62
2023-08-17T06:56:45.597Z,15.64
2023-08-17T06:59:50.170Z,15.68
2023-08-17T07:02:57.012Z,15.74
2023-08-17T07:06:03.068Z,15.74
2023-08-17T07:09:07.484Z,15.70
2023-08-17T07:12:11.974Z,15.67
2023-08-17T07:15:16.574Z,15.68
2023-08-17T07:18:25.117Z,15.78
2023-08-17T07:21:29.626Z,15.77
2023-08-17T07:24:34.099Z,15.82
2023-08-17T07:27:38.618Z,15.84
2023-08-17T07:30:43.461Z,15.84
2023-08-17T07:33:48.709Z,15.89
2023-08-17T07:36:53.066Z,15.89
2023-08-17T07:39:57.535Z,15.91
2023-08-17T07:43:02.907Z,15.97
2023-08-17T07:46:06.995Z,16.03
2023-08-17T07:49:22.565Z,15.98
2023-08-17T07:52:34.863Z,15.92
2023-08-17T07:55:39.186Z,15.98
2023-08-17T07:58:43.655Z,15.91
2023-08-17T08:01:48.269Z,15.97
2023-08-17T08:04:52.473Z,15.99
2023-08-17T08:07:56.671Z,15.98
2023-08-17T08:11:01.056Z,16.01
2023-08-17T08:14:05.506Z,16.05
2023-08-17T08:17:09.659Z,16.11
2023-08-17T08:20:14.473Z,16.10
2023-08-17T08:23:18.990Z,16.10
2023-08-17T08:26:23.475Z,16.08
2023-08-17T08:29:28.164Z,16.11
2023-08-17T08:32:32.743Z,16.17
2023-08-17T08:35:36.836Z,16.21
2023-08-17T08:38:41.085Z,16.17
2023-08-17T08:41:45.539Z,16.18
2023-08-17T08:44:51.366Z,16.13
2023-08-17T08:47:57.430Z,16.13
2023-08-17T08:51:05.289Z,16.09
2023-08-17T08:54:13.119Z,16.17
2023-08-17T08:57:19.793Z,16.17
2023-08-17T09:00:26.744Z,16.17
2023-08-17T09:03:33.815Z,16.20
2023-08-17T09:06:41.313Z,16.21
2023-08-17T09:09:46.283Z,16.32
2023-08-17T09:12:51.041Z,16.34
2023-08-17T09:15:55.492Z,16.39
2023-08-17T09:19:00.803Z,16.51
2023-08-17T09:22:05.526Z,16.50
2023-08-17T09:25:23.200Z,16.55
2023-08-17T09:28:27.561Z,16.62
2023-08-17T09:31:33.571Z,16.68
2023-08-17T09:34:37.981Z,16.74
2023-08-17T09:37:42.338Z,16.80
2023-08-17T09:40:48.925Z,16.83
2023-08-17T09:43:55.553Z,16.82
2023-08-17T09:47:00.301Z,16.90
2023-08-17T09:50:08.522Z,16.93
2023-08-17T09:53:19.504Z,16.96
2023-08-17T09:56:25.163Z,16.98
2023-08-17T09:59:29.864Z,17.00
2023-08-17T10:02:34.861Z,16.97
2023-08-17T10:05:44.749Z,17.00
2023-08-17T10:08:50.981Z,16.97
2023-08-17T10:12:02.353Z,16.96
2023-08-17T10:15:19.517Z,16.99
2023-08-17T10:18:35.522Z,17.06
2023-08-17T10:21:49.799Z,17.07
2023-08-17T10:24:56.789Z,17.05
2023-08-17T10:28:04.716Z,17.08
2023-08-17T10:31:11.480Z,17.12
2023-08-17T10:34:17.110Z,17.09
2023-08-17T10:37:24.786Z,17.12
2023-08-17T10:40:36.067Z,17.12
2023-08-17T10:44:00.357Z,17.14
2023-08-17T10:47:25.530Z,17.19
2023-08-17T10:50:30.108Z,17.20
2023-08-17T10:53:43.538Z,17.16
2023-08-17T10:56:47.862Z,17.20
2023-08-17T11:00:28.573Z,17.21
2023-08-17T11:03:34.249Z,17.16
2023-08-17T11:06:40.271Z,17.13
2023-08-17T11:09:45.265Z,17.20
2023-08-17T11:12:53.355Z,17.22
2023-08-17T11:16:04.468Z,17.23
2023-08-17T11:19:13.489Z,17.26
2023-08-17T11:22:20.280Z,17.25
2023-08-17T11:25:32.990Z,17.29
2023-08-17T11:31:50.972Z,17.33
2023-08-17T11:34:59.632Z,17.35
2023-08-17T11:38:08.856Z,17.34
2023-08-17T11:44:24.355Z,17.47
2023-08-17T11:47:32.439Z,17.53
2023-08-17T11:50:40.049Z,17.54
2023-08-17T11:53:49.523Z,17.52
2023-08-17T11:56:54.012Z,17.49
2023-08-17T11:59:59.394Z,17.52
2023-08-17T12:03:05.500Z,17.46
2023-08-17T12:06:11.245Z,17.38
2023-08-17T12:09:16.748Z,17.36
2023-08-17T12:12:23.864Z,17.38
2023-08-17T12:15:37.174Z,17.35
2023-08-17T12:18:49.821Z,17.32
2023-08-17T12:21:54.182Z,17.28
2023-08-17T12:24:59.161Z,17.27
2023-08-17T12:28:03.582Z,17.27
2023-08-17T12:31:09.076Z,17.24
2023-08-17T12:34:13.672Z,17.22
2023-08-17T12:37:22.272Z,17.20
2023-08-17T12:40:26.696Z,17.15
2023-08-17T12:43:30.837Z,17.16
2023-08-17T12:46:35.960Z,17.18
2023-08-17T12:49:40.395Z,17.15
2023-08-17T12:52:47.226Z,17.11
2023-08-17T12:55:56.041Z,17.09
2023-08-17T12:59:02.978Z,17.12
2023-08-17T13:02:07.776Z,17.11
2023-08-17T13:05:12.209Z,17.17
2023-08-17T13:08:16.938Z,17.18
2023-08-17T13:11:21.197Z,17.20
2023-08-17T13:14:27.162Z,17.18
2023-08-17T13:17:31.371Z,17.19
2023-08-17T13:20:36.888Z,17.24
2023-08-17T13:23:41.159Z,17.27
2023-08-17T13:26:46.518Z,17.28
2023-08-17T13:29:50.667Z,17.33
2023-08-17T13:32:55.217Z,17.35
2023-08-17T13:36:00.265Z,17.41
2023-08-17T13:39:05.143Z,17.47
2023-08-17T13:42:09.631Z,17.48
2023-08-17T13:45:13.882Z,17.46
2023-08-17T13:48:18.272Z,17.43
2023-08-17T13:51:24.313Z,17.50
2023-08-17T13:54:29.206Z,17.47
2023-08-17T13:57:33.851Z,17.51
2023-08-17T14:00:38.160Z,17.59
2023-08-17T14:03:43.835Z,17.55
2023-08-17T14:06:49.211Z,17.51
2023-08-17T14:10:06.888Z,17.56
2023-08-17T14:13:13.839Z,17.54
2023-08-17T14:16:18.248Z,17.49
2023-08-17T14:19:22.672Z,17.46
2023-08-17T14:22:27.202Z,17.45
2023-08-17T14:25:32.044Z,17.49
2023-08-17T14:28:36.733Z,17.55
2023-08-17T14:31:41.364Z,17.55
2023-08-17T14:34:45.884Z,17.56
2023-08-17T14:37:50.435Z,17.47
2023-08-17T14:40:54.944Z,17.45
2023-08-17T14:44:02.598Z,17.46
2023-08-17T14:47:07.795Z,17.47
2023-08-17T14:50:12.181Z,17.43
2023-08-17T14:53:16.680Z,17.41
2023-08-17T14:56:20.975Z,17.42
2023-08-17T14:59:25.465Z,17.43
2023-08-17T15:02:30.480Z,17.41
2023-08-17T15:05:37.218Z,17.36
2023-08-17T15:08:41.390Z,17.31
2023-08-17T15:11:46.758Z,17.32
2023-08-17T15:14:51.109Z,17.27
2023-08-17T15:17:55.250Z,17.27
2023-08-17T15:20:59.558Z,17.21
2023-08-17T15:24:04.045Z,17.19
2023-08-17T15:27:08.921Z,17.19
2023-08-17T15:30:13.622Z,17.28
2023-08-17T15:33:18.132Z,17.27
2023-08-17T15:36:27.403Z,17.46
2023-08-17T15:39:32.156Z,17.58
2023-08-17T15:42:36.312Z,17.64
2023-08-17T15:45:41.542Z,17.69
2023-08-17T15:48:45.982Z,17.59
2023-08-17T15:51:50.536Z,17.56
2023-08-17T15:54:55.665Z,17.49
2023-08-17T15:58:00.210Z,17.39
2023-08-17T16:01:05.065Z,17.34
2023-08-17T16:04:09.493Z,17.27
2023-08-17T16:07:14.206Z,17.17
2023-08-17T16:10:18.656Z,17.09
2023-08-17T16:13:22.892Z,17.10
2023-08-17T16:16:27.420Z,17.05
2023-08-17T16:19:31.862Z,16.99
2023-08-17T16:22:36.984Z,17.00
2023-08-17T16:25:41.456Z,16.93
2023-08-17T16:28:51.457Z,16.92
2023-08-17T16:32:09.378Z,16.86
2023-08-17T16:35:15.373Z,16.81
2023-08-17T16:38:20.226Z,16.72
2023-08-17T16:41:24.866Z,16.65
2023-08-17T16:44:29.615Z,16.59
2023-08-17T16:47:34.417Z,16.52
2023-08-17T16:50:39.067Z,16.48
2023-08-17T16:53:50.579Z,16.47
2023-08-17T16:56:54.918Z,16.39
2023-08-17T17:00:04.473Z,16.36
2023-08-17T17:03:09.229Z,16.30
2023-08-17T17:06:14.087Z,16.35
2023-08-17T17:09:20.294Z,16.32
2023-08-17T17:12:24.475Z,16.34
2023-08-17T17:15:29.343Z,16.32
2023-08-17T17:18:33.765Z,16.27
2023-08-17T17:21:38.044Z,16.24
2023-08-17T17:24:42.279Z,16.24
2023-08-17T17:27:46.453Z,16.21
2023-08-17T17:30:50.808Z,16.15
2023-08-17T17:33:56.312Z,16.13
2023-08-17T17:37:00.815Z,16.03
2023-08-17T17:40:07.018Z,16.02
2023-08-17T17:43:13.327Z,15.99
2023-08-17T17:46:19.909Z,15.90
2023-08-17T17:49:24.603Z,15.83
2023-08-17T17:52:30.605Z,15.80
2023-08-17T17:55:35.066Z,15.80
2023-08-17T17:58:39.680Z,15.79
2023-08-17T18:01:43.998Z,15.71
2023-08-17T18:04:48.693Z,15.66
2023-08-17T18:07:53.110Z,15.64
2023-08-17T18:10:57.860Z,15.53
2023-08-17T18:14:02.888Z,15.52
2023-08-17T18:17:07.269Z,15.51
2023-08-17T18:20:11.660Z,15.45
2023-08-17T18:23:16.710Z,15.43
2023-08-17T18:26:20.875Z,15.40
2023-08-17T18:29:25.636Z,15.40
2023-08-17T18:32:30.112Z,15.34
2023-08-17T18:35:34.246Z,15.34
2023-08-17T18:38:38.847Z,15.31
2023-08-17T18:41:43.423Z,15.30
2023-08-17T18:44:47.798Z,15.29
2023-08-17T18:47:52.458Z,15.33
2023-08-17T18:50:58.037Z,15.29
2023-08-17T18:54:02.363Z,15.30
2023-08-17T18:57:06.521Z,15.30
2023-08-17T19:00:12.587Z,15.34
2023-08-17T19:03:17.158Z,15.35
2023-08-17T19:06:21.327Z,15.33
2023-08-17T19:09:26.289Z,15.35
2023-08-17T19:12:30.382Z,15.36
2023-08-17T19:15:35.012Z,15.38
2023-08-17T19:18:40.082Z,15.40
2023-08-17T19:21:45.059Z,15.36
2023-08-17T19:24:49.562Z,15.38
2023-08-17T19:27:53.814Z,15.40
2023-08-17T19:30:58.257Z,15.42
2023-08-17T19:34:02.756Z,15.40
2023-08-17T19:37:07.060Z,15.43
2023-08-17T19:40:13.370Z,15.45
2023-08-17T19:43:18.615Z,15.48
2023-08-17T19:46:23.282Z,15.49
2023-08-17T19:49:27.809Z,15.43
2023-08-17T19:52:32.178Z,15.45
2023-08-17T19:55:36.904Z,15.48
2023-08-17T19:58:41.229Z,15.49
2023-08-17T20:01:47.586Z,15.44
2023-08-17T20:04:51.990Z,15.47
2023-08-17T20:07:56.677Z,15.50
2023-08-17T20:11:09.868Z,15.53
2023-08-17T20:14:16.715Z,15.52
2023-08-17T20:17:21.549Z,15.52
2023-08-17T20:20:26.032Z,15.55
2023-08-17T20:23:30.769Z,15.60
2023-08-17T20:26:35.177Z,15.57
2023-08-17T20:29:39.987Z,15.59
2023-08-17T20:32:44.235Z,15.60
2023-08-17T20:35:53.220Z,15.61
2023-08-17T20:38:57.412Z,15.63
2023-08-17T20:42:11.250Z,15.65
2023-08-17T20:45:15.924Z,15.60
2023-08-17T20:48:20.310Z,15.64
2023-08-17T20:51:25.589Z,15.65
2023-08-17T20:54:30.346Z,15.62
2023-08-17T20:57:34.448Z,15.69
2023-08-17T21:00:38.833Z,15.69
2023-08-17T21:03:43.415Z,15.67
2023-08-17T21:06:47.768Z,15.67
2023-08-17T21:09:54.141Z,15.71
2023-08-17T21:12:59.484Z,15.72
2023-08-17T21:16:09.235Z,15.72
2023-08-17T21:19:13.830Z,15.71
2023-08-17T21:22:18.225Z,15.70
2023-08-17T21:25:22.941Z,15.73
2023-08-17T21:28:27.642Z,15.72
2023-08-17T21:31:33.200Z,15.69
2023-08-17T21:34:38.901Z,15.71
2023-08-17T21:37:45.605Z,15.74
2023-08-17T21:41:00.366Z,15.79
2023-08-17T21:44:05.030Z,15.79
2023-08-17T21:47:09.638Z,15.81
2023-08-17T21:50:14.878Z,15.81
2023-08-17T21:53:20.072Z,15.81
2023-08-17T21:56:25.034Z,15.80
2023-08-17T21:59:29.489Z,15.78
2023-08-17T22:02:33.659Z,15.84
2023-08-17T22:05:38.811Z,15.84
2023-08-17T22:08:43.569Z,15.84
2023-08-17T22:11:48.224Z,15.82
2023-08-17T22:14:52.701Z,15.83
2023-08-17T22:17:57.976Z,15.83
2023-08-17T22:21:06.479Z,15.84
2023-08-17T22:24:10.876Z,15.83
2023-08-17T22:27:15.817Z,15.83
2023-08-17T22:30:20.245Z,15.86
2023-08-17T22:33:24.671Z,15.84
2023-08-17T22:36:29.470Z,15.87
2023-08-17T22:39:33.373Z,15.87
2023-08-17T22:42:39.286Z,15.88
2023-08-17T22:45:45.829Z,15.92
2023-08-17T22:48:50.270Z,15.92
2023-08-17T22:51:54.738Z,15.96
2023-08-17T22:55:00.915Z,15.92
2023-08-17T22:58:05.497Z,15.97
2023-08-17T23:01:09.988Z,15.96
2023-08-17T23:04:14.310Z,15.95
2023-08-17T23:07:18.640Z,15.98
2023-08-17T23:10:23.214Z,15.99
2023-08-17T23:13:28.319Z,16.04
2023-08-17T23:16:32.825Z,16.03
2023-08-17T23:19:37.249Z,16.02
2023-08-17T23:22:41.267Z,15.99
2023-08-17T23:25:46.143Z,15.99
2023-08-17T23:28:51.371Z,16.00
2023-08-17T23:31:56.065Z,16.02
2023-08-17T23:35:00.819Z,16.01
2023-08-17T23:38:06.864Z,16.05
2023-08-17T23:41:11.490Z,16.07
2023-08-17T23:44:22.998Z,16.08
2023-08-17T23:47:27.461Z,16.10
2023-08-17T23:50:32.682Z,16.05
2023-08-17T23:53:37.421Z,16.10
2023-08-17T23:56:41.765Z,16.10
2023-08-17T23:59:48.177Z,16.13
